Time;durP1;ratioP1;P1;durP2;ratioP2;P2;SDS_P1;SDS_P2;PMS_P1;PMS_P2;Temp;Humidity;BMP_temperature;BMP_pressure;BME280_temperature;BME280_humidity;BME280_pressure;Samples;Min_cycle;Max_cycle;Signal;HPM_P1;HPM_P2
2022/10/11 00:00:25;;;;;;;15.23;2.53;;;9.40;99.90;;;;;;5125663;27;20398;-80
2022/10/11 00:02:51;;;;;;;17.58;2.03;;;9.00;99.90;;;;;;5125931;27;20173;-79
2022/10/11 00:05:17;;;;;;;10.15;2.17;;;7.70;99.90;;;;;;5133871;27;20502;-79
2022/10/11 00:07:42;;;;;;;11.48;2.20;;;7.70;99.90;;;;;;5150657;27;20623;-79
2022/10/11 00:10:08;;;;;;;9.45;2.05;;;7.70;99.90;;;;;;5129199;27;20035;-79
2022/10/11 00:12:35;;;;;;;8.60;1.95;;;7.70;99.90;;;;;;5126563;27;20043;-80
2022/10/11 00:15:02;;;;;;;12.63;2.08;;;8.80;99.90;;;;;;5103817;27;20047;-79
2022/10/11 00:17:28;;;;;;;6.78;2.13;;;7.70;99.90;;;;;;5102336;27;20054;-80
2022/10/11 00:19:54;;;;;;;11.93;2.13;;;9.10;99.90;;;;;;5122006;27;20036;-80
2022/10/11 00:22:19;;;;;;;11.70;1.48;;;7.50;99.90;;;;;;5105242;27;20428;-80
2022/10/11 00:24:45;;;;;;;13.68;2.83;;;7.60;99.90;;;;;;5151561;27;20503;-80
2022/10/11 00:27:11;;;;;;;11.00;1.73;;;9.50;99.90;;;;;;5127632;27;20406;-80
2022/10/11 00:29:37;;;;;;;10.63;1.63;;;8.10;99.90;;;;;;5133760;27;20054;-80
2022/10/11 00:32:03;;;;;;;6.47;1.83;;;8.70;99.90;;;;;;5103266;27;20047;-80
2022/10/11 00:34:29;;;;;;;8.15;1.48;;;8.40;99.90;;;;;;5103298;27;20043;-80
2022/10/11 00:36:54;;;;;;;7.90;1.50;;;7.30;99.90;;;;;;5116107;27;20084;-79
2022/10/11 00:39:20;;;;;;;11.95;2.25;;;7.50;99.90;;;;;;5124732;27;20038;-80
2022/10/11 00:41:48;;;;;;;10.30;1.95;;;;;;;;;;5132472;27;20046;-80
2022/10/11 00:44:17;;;;;;;11.10;1.85;;;7.40;99.90;;;;;;5107651;27;20062;-80
2022/10/11 00:46:53;;;;;;;11.35;1.77;;;7.40;99.90;;;;;;5132923;27;20437;-80
2022/10/11 00:49:35;;;;;;;9.35;1.75;;;7.50;99.90;;;;;;5126338;27;20050;-80
2022/10/11 00:52:13;;;;;;;8.82;1.38;;;7.50;99.90;;;;;;5132211;27;20508;-80
2022/10/11 00:54:42;;;;;;;9.38;1.90;;;7.40;99.90;;;;;;5122126;27;20035;-80
2022/10/11 00:57:13;;;;;;;15.25;1.73;;;7.40;99.90;;;;;;5113272;27;20053;-80
2022/10/11 00:59:43;;;;;;;8.02;2.00;;;7.40;99.90;;;;;;5120629;27;20474;-80
2022/10/11 01:02:13;;;;;;;12.43;2.17;;;8.90;99.90;;;;;;5131757;27;20394;-80
2022/10/11 01:04:40;;;;;;;5.03;1.30;;;7.50;99.90;;;;;;5118021;27;20473;-80
2022/10/11 01:07:06;;;;;;;8.48;1.77;;;7.30;99.90;;;;;;5129555;27;20049;-80
2022/10/11 01:09:32;;;;;;;5.97;1.25;;;6.80;99.90;;;;;;5105623;27;20973;-79
2022/10/11 01:12:01;;;;;;;5.70;1.35;;;7.00;99.90;;;;;;5104151;27;20047;-80
2022/10/11 01:14:27;;;;;;;10.35;1.77;;;7.20;99.90;;;;;;5106105;27;20047;-79
2022/10/11 01:17:05;;;;;;;7.53;1.90;;;7.20;99.90;;;;;;5145956;27;20079;-80
2022/10/11 01:19:59;;;;;;;9.35;1.70;;;7.10;99.90;;;;;;5142275;27;20053;-80
2022/10/11 01:22:36;;;;;;;12.65;1.88;;;7.20;99.90;;;;;;5103015;27;20130;-80
2022/10/11 01:25:29;;;;;;;6.13;1.40;;;7.20;99.90;;;;;;5127970;27;20030;-79
2022/10/11 01:27:57;;;;;;;10.70;2.33;;;7.20;99.90;;;;;;5102076;27;20095;-79
2022/10/11 01:30:29;;;;;;;9.35;2.60;;;7.20;99.90;;;;;;5106071;27;20482;-79
2022/10/11 01:33:19;;;;;;;9.45;1.35;;;9.40;99.90;;;;;;5145591;27;20754;-79
2022/10/11 01:36:08;;;;;;;12.52;1.60;;;7.10;99.90;;;;;;5118048;27;20045;-79
2022/10/11 01:38:40;;;;;;;11.82;1.65;;;7.10;99.90;;;;;;5141417;27;20507;-79
2022/10/11 01:41:17;;;;;;;7.20;1.15;;;9.00;99.90;;;;;;5100272;27;20034;-79
2022/10/11 01:43:45;;;;;;;8.98;1.65;;;7.10;99.90;;;;;;5125914;27;20047;-80
2022/10/11 01:46:11;;;;;;;9.68;1.23;;;7.00;99.90;;;;;;5104747;27;20239;-80
2022/10/11 01:48:51;;;;;;;10.25;2.03;;;7.10;99.90;;;;;;5128137;27;20054;-79
2022/10/11 01:51:24;;;;;;;8.80;1.15;;;7.10;99.90;;;;;;5105014;27;20350;-80
2022/10/11 01:54:23;;;;;;;5.53;1.20;;;7.00;99.90;;;;;;5103272;27;20150;-79
2022/10/11 01:57:07;;;;;;;9.73;1.60;;;7.00;99.90;;;;;;5095414;27;20047;-79
2022/10/11 02:00:00;;;;;;;10.60;1.98;;;7.00;99.90;;;;;;5118181;27;20103;-80
2022/10/11 02:02:29;;;;;;;7.97;1.50;;;6.90;99.90;;;;;;5149986;27;20049;-80
2022/10/11 02:05:10;;;;;;;6.07;1.40;;;6.90;99.90;;;;;;5102341;27;20038;-80
2022/10/11 02:08:04;;;;;;;7.68;1.05;;;6.80;99.90;;;;;;5101593;27;20050;-80
2022/10/11 02:10:45;;;;;;;5.75;1.33;;;7.20;99.90;;;;;;5102651;27;20053;-78
2022/10/11 02:13:30;;;;;;;7.13;1.50;;;6.80;99.90;;;;;;5128532;27;20039;-80
2022/10/11 02:15:59;;;;;;;9.45;1.40;;;6.00;99.90;;;;;;5104986;27;20112;-80
2022/10/11 02:18:31;;;;;;;6.60;1.40;;;8.30;99.90;;;;;;5099075;27;20050;-80
2022/10/11 02:21:00;;;;;;;7.47;1.20;;;6.80;99.90;;;;;;5109427;27;20034;-79
2022/10/11 02:23:33;;;;;;;8.63;1.95;;;6.90;99.90;;;;;;5110864;27;20057;-81
2022/10/11 02:26:02;;;;;;;12.60;1.73;;;6.80;99.90;;;;;;5095263;28;20062;-81
2022/10/11 02:28:32;;;;;;;8.98;1.67;;;6.80;99.90;;;;;;5097585;28;20088;-80
2022/10/11 02:31:00;;;;;;;7.00;1.38;;;6.70;99.90;;;;;;5110562;27;20043;-80
2022/10/11 02:33:36;;;;;;;12.30;1.83;;;9.20;99.90;;;;;;5120342;28;20172;-80
2022/10/11 02:36:16;;;;;;;13.82;2.00;;;8.30;99.90;;;;;;5127027;28;20627;-81
2022/10/11 02:38:53;;;;;;;7.97;2.25;;;6.80;99.90;;;;;;5098443;28;20039;-80
2022/10/11 02:41:51;;;;;;;8.73;1.30;;;7.30;99.90;;;;;;5126862;28;20047;-80
2022/10/11 02:44:42;;;;;;;10.93;1.65;;;6.70;99.90;;;;;;5109336;28;20043;-80
2022/10/11 02:47:09;;;;;;;6.28;1.27;;;6.70;99.90;;;;;;5115987;27;20039;-81
2022/10/11 02:49:35;;;;;;;6.88;1.15;;;7.80;99.90;;;;;;5102250;28;20506;-80
2022/10/11 02:52:04;;;;;;;11.85;1.92;;;7.40;99.90;;;;;;5127901;27;20510;-81
2022/10/11 02:54:30;;;;;;;10.88;1.73;;;6.70;99.90;;;;;;5126612;27;20039;-80
2022/10/11 02:56:55;;;;;;;8.07;1.52;;;6.70;99.90;;;;;;5114210;27;20114;-79
2022/10/11 02:59:21;;;;;;;7.47;1.30;;;8.60;99.90;;;;;;5101399;27;20061;-79
2022/10/11 03:01:47;;;;;;;9.30;2.05;;;6.70;99.90;;;;;;5131239;27;20040;-81
2022/10/11 03:04:13;;;;;;;7.07;1.65;;;8.70;99.90;;;;;;5089329;27;20052;-80
2022/10/11 03:06:38;;;;;;;7.75;1.02;;;8.70;99.90;;;;;;5131407;27;20249;-80
2022/10/11 03:09:04;;;;;;;4.88;1.23;;;6.70;99.90;;;;;;5100505;28;20044;-80
2022/10/11 03:11:30;;;;;;;10.60;1.55;;;8.70;99.90;;;;;;5099723;28;20045;-80
2022/10/11 03:13:56;;;;;;;3.67;0.82;;;6.60;99.90;;;;;;5102833;28;20038;-80
2022/10/11 03:16:21;;;;;;;6.07;1.27;;;6.30;99.90;;;;;;5129430;27;20058;-80
2022/10/11 03:18:47;;;;;;;15.05;1.88;;;8.90;99.90;;;;;;5117109;27;20063;-81
2022/10/11 03:21:13;;;;;;;7.30;1.10;;;8.70;99.90;;;;;;5130019;27;20513;-80
2022/10/11 03:23:38;;;;;;;6.40;1.48;;;8.10;99.90;;;;;;5126183;27;20040;-81
2022/10/11 03:26:04;;;;;;;7.47;1.50;;;8.60;99.90;;;;;;5129134;27;20043;-80
2022/10/11 03:28:30;;;;;;;10.15;1.63;;;6.60;99.90;;;;;;5111047;28;20475;-79
2022/10/11 03:30:56;;;;;;;9.07;2.20;;;6.60;99.90;;;;;;5125916;27;20103;-79
2022/10/11 03:33:22;;;;;;;4.95;1.35;;;8.80;99.90;;;;;;5131478;27;20042;-80
2022/10/11 03:35:49;;;;;;;6.32;2.22;;;6.50;99.90;;;;;;5128658;27;20043;-81
2022/10/11 03:38:18;;;;;;;7.78;1.83;;;8.30;99.90;;;;;;5129062;27;20031;-79
2022/10/11 03:40:43;;;;;;;6.20;1.63;;;8.00;99.90;;;;;;5100022;28;20047;-79
2022/10/11 03:43:10;;;;;;;7.22;1.83;;;6.50;99.90;;;;;;5127992;27;20043;-79
2022/10/11 03:45:36;;;;;;;9.35;1.80;;;6.40;99.90;;;;;;5126347;27;20039;-80
2022/10/11 03:48:02;;;;;;;12.05;2.65;;;6.70;99.90;;;;;;5118423;27;20412;-80
2022/10/11 03:50:28;;;;;;;8.18;1.27;;;6.60;99.90;;;;;;5123609;27;20043;-80
2022/10/11 03:52:56;;;;;;;20.80;2.03;;;6.40;99.90;;;;;;5126711;27;20356;-79
2022/10/11 03:55:22;;;;;;;9.52;1.20;;;6.50;99.90;;;;;;5102345;27;20039;-80
2022/10/11 03:57:49;;;;;;;5.65;1.00;;;6.40;99.90;;;;;;5099724;27;20096;-80
2022/10/11 04:00:14;;;;;;;6.72;1.45;;;6.50;99.90;;;;;;5110720;27;20037;-80
2022/10/11 04:02:43;;;;;;;7.18;0.95;;;6.50;99.90;;;;;;5127061;27;20238;-79
2022/10/11 04:05:11;;;;;;;12.02;1.77;;;8.20;99.90;;;;;;5101570;27;20027;-80
2022/10/11 04:07:37;;;;;;;7.95;1.50;;;6.60;99.90;;;;;;5100953;28;20521;-80
2022/10/11 04:10:03;;;;;;;9.48;1.52;;;6.60;99.90;;;;;;5125661;27;20069;-80
2022/10/11 04:12:29;;;;;;;6.07;1.40;;;6.60;99.90;;;;;;5129071;27;20670;-80
2022/10/11 04:14:55;;;;;;;6.10;1.40;;;8.30;99.90;;;;;;5127567;27;20031;-80
2022/10/11 04:17:20;;;;;;;9.55;1.52;;;6.30;99.90;;;;;;5121659;27;20095;-80
2022/10/11 04:19:46;;;;;;;7.88;1.75;;;6.50;99.90;;;;;;5121508;27;20475;-80
2022/10/11 04:22:13;;;;;;;6.90;1.25;;;6.50;99.90;;;;;;5126477;27;20185;-80
2022/10/11 04:24:38;;;;;;;5.32;1.17;;;6.40;99.90;;;;;;5126279;27;20078;-80
2022/10/11 04:27:05;;;;;;;7.07;1.73;;;6.50;99.90;;;;;;5127415;27;20504;-79
2022/10/11 04:29:30;;;;;;;5.68;1.60;;;6.60;99.90;;;;;;5125339;27;20051;-79
2022/10/11 04:32:11;;;;;;;8.73;1.42;;;8.80;99.90;;;;;;5128797;27;20550;-79
2022/10/11 04:34:37;;;;;;;8.45;1.77;;;6.60;99.90;;;;;;5119249;27;20047;-79
2022/10/11 04:37:02;;;;;;;9.48;2.47;;;7.90;99.90;;;;;;5122478;27;20534;-80
2022/10/11 04:39:28;;;;;;;9.48;3.65;;;6.60;99.90;;;;;;5130192;27;20095;-80
2022/10/11 04:41:54;;;;;;;9.68;2.13;;;6.60;99.90;;;;;;5124972;27;20103;-79
2022/10/11 04:44:19;;;;;;;8.50;1.67;;;7.50;99.90;;;;;;5128542;27;20051;-79
2022/10/11 04:46:45;;;;;;;8.48;1.33;;;7.70;99.90;;;;;;5124966;27;20046;-80
2022/10/11 04:49:10;;;;;;;11.77;1.70;;;6.60;99.90;;;;;;5101241;28;20036;-80
2022/10/11 04:51:36;;;;;;;6.40;1.67;;;6.40;99.90;;;;;;5112464;27;20408;-80
2022/10/11 04:54:02;;;;;;;9.05;1.42;;;7.80;99.90;;;;;;5129635;27;20045;-80
2022/10/11 04:56:29;;;;;;;9.45;1.50;;;8.20;99.90;;;;;;5129629;27;20392;-79
2022/10/11 04:58:58;;;;;;;13.85;2.05;;;6.50;99.90;;;;;;5102705;28;20054;-80
2022/10/11 05:01:25;;;;;;;3.40;0.80;;;8.10;99.90;;;;;;5126907;27;20043;-80
2022/10/11 05:03:51;;;;;;;7.38;1.25;;;5.50;99.90;;;;;;5119685;27;20482;-80
2022/10/11 05:06:17;;;;;;;6.55;0.98;;;6.70;99.90;;;;;;5127258;27;20031;-80
2022/10/11 05:08:42;;;;;;;11.45;1.98;;;8.40;99.90;;;;;;5124661;27;20657;-80
2022/10/11 05:11:11;;;;;;;16.08;2.25;;;8.80;99.90;;;;;;5101729;28;20075;-80
2022/10/11 05:13:38;;;;;;;9.55;2.15;;;6.60;99.90;;;;;;5085515;28;20506;-79
2022/10/11 05:16:04;;;;;;;7.88;1.75;;;8.20;99.90;;;;;;5102308;28;20362;-82
2022/10/11 05:18:30;;;;;;;6.00;1.35;;;6.60;99.90;;;;;;5102695;27;20408;-80
2022/10/11 05:21:03;;;;;;;12.00;2.10;;;6.50;99.90;;;;;;5114999;27;20494;-80
2022/10/11 05:23:31;;;;;;;6.65;1.55;;;6.60;99.90;;;;;;5120278;27;20078;-80
2022/10/11 05:25:58;;;;;;;9.98;1.58;;;8.40;99.90;;;;;;5126830;27;20123;-79
2022/10/11 05:28:24;;;;;;;8.85;2.13;;;6.70;99.90;;;;;;5123839;27;20039;-80
2022/10/11 05:30:51;;;;;;;11.25;2.30;;;8.80;99.90;;;;;;5102099;28;20043;-80
2022/10/11 05:33:16;;;;;;;7.13;1.80;;;6.70;99.90;;;;;;5100757;27;20118;-79
2022/10/11 05:35:42;;;;;;;15.55;2.22;;;6.60;99.90;;;;;;5102064;28;20035;-79
2022/10/11 05:38:09;;;;;;;10.38;1.83;;;6.60;99.90;;;;;;5123428;27;20052;-79
2022/10/11 05:40:37;;;;;;;8.38;1.75;;;6.60;99.90;;;;;;5098157;27;20092;-79
2022/10/11 05:43:03;;;;;;;8.68;1.63;;;6.40;99.90;;;;;;5129133;27;20235;-79
2022/10/11 05:45:29;;;;;;;7.72;2.65;;;6.60;99.90;;;;;;5096486;27;20078;-80
2022/10/11 05:47:54;;;;;;;12.77;2.60;;;6.70;99.90;;;;;;5123409;27;20529;-79
2022/10/11 05:50:20;;;;;;;9.90;2.92;;;6.70;99.90;;;;;;5127619;27;20122;-79
2022/10/11 05:52:46;;;;;;;6.15;2.10;;;6.70;99.90;;;;;;5089675;28;20032;-79
2022/10/11 05:55:11;;;;;;;9.50;2.28;;;6.60;99.90;;;;;;5125658;27;20035;-79
2022/10/11 05:57:37;;;;;;;10.63;1.83;;;7.00;99.90;;;;;;5128636;27;20039;-80
2022/10/11 06:00:04;;;;;;;6.35;1.67;;;6.70;99.90;;;;;;5101190;28;20039;-79
2022/10/11 06:02:30;;;;;;;10.40;3.17;;;6.70;99.90;;;;;;5117973;27;20088;-80
2022/10/11 06:04:55;;;;;;;10.82;2.85;;;5.50;99.90;;;;;;5124396;27;20433;-79
2022/10/11 06:07:21;;;;;;;9.25;2.55;;;7.40;99.90;;;;;;5100968;27;20039;-79
2022/10/11 06:09:47;;;;;;;11.13;2.38;;;6.40;99.90;;;;;;5128228;27;20386;-79
2022/10/11 06:12:32;;;;;;;16.02;3.01;;;8.60;99.90;;;;;;5060016;28;10000891;-80
2022/10/11 06:15:02;;;;;;;19.40;2.97;;;6.80;99.90;;;;;;5096886;28;20343;-80
2022/10/11 06:17:28;;;;;;;20.55;3.85;;;6.60;99.90;;;;;;5099167;27;20051;-80
2022/10/11 06:19:53;;;;;;;28.65;3.20;;;6.70;99.90;;;;;;5124898;27;20140;-80
2022/10/11 06:22:19;;;;;;;14.10;2.90;;;6.70;99.90;;;;;;5091766;28;20067;-80
2022/10/11 06:24:45;;;;;;;22.33;3.40;;;7.20;99.90;;;;;;5105294;28;20040;-79
2022/10/11 06:27:11;;;;;;;10.30;2.88;;;7.70;99.90;;;;;;5096198;28;20537;-80
2022/10/11 06:29:37;;;;;;;17.63;2.75;;;7.80;99.90;;;;;;5094003;28;20482;-81
2022/10/11 06:32:03;;;;;;;18.83;5.30;;;8.60;99.90;;;;;;5114244;28;20095;-80
2022/10/11 06:34:28;;;;;;;16.30;4.20;;;6.70;99.90;;;;;;5092507;28;20399;-80
2022/10/11 06:36:54;;;;;;;13.48;2.78;;;6.70;99.90;;;;;;5115241;28;20070;-81
2022/10/11 06:39:23;;;;;;;9.40;2.20;;;6.90;99.90;;;;;;5110154;28;20039;-81
2022/10/11 06:41:48;;;;;;;11.77;3.38;;;6.70;99.90;;;;;;5112679;28;20368;-79
2022/10/11 06:44:14;;;;;;;19.73;3.05;;;6.70;99.90;;;;;;5116977;28;20036;-79
2022/10/11 06:46:40;;;;;;;12.73;2.40;;;6.70;99.90;;;;;;5112872;28;20120;-79
2022/10/11 06:49:06;;;;;;;13.68;2.33;;;6.80;99.90;;;;;;5115537;28;20378;-79
2022/10/11 06:51:34;;;;;;;14.18;2.13;;;6.80;99.90;;;;;;5095938;28;20040;-79
2022/10/11 06:54:00;;;;;;;9.82;1.80;;;6.80;99.90;;;;;;5113879;28;20070;-79
2022/10/11 06:56:27;;;;;;;10.55;2.20;;;8.50;99.90;;;;;;5094081;28;20043;-79
2022/10/11 06:58:54;;;;;;;12.00;2.00;;;6.50;99.90;;;;;;5090150;28;20046;-79
2022/10/11 07:01:22;;;;;;;12.45;2.58;;;6.70;99.90;;;;;;5092002;28;20135;-80
2022/10/11 07:03:50;;;;;;;10.82;1.88;;;7.00;99.90;;;;;;5095514;28;20155;-80
2022/10/11 07:06:19;;;;;;;13.38;2.25;;;7.00;99.90;;;;;;5098208;28;20035;-79
2022/10/11 07:08:45;;;;;;;13.52;2.15;;;7.10;99.90;;;;;;5111384;28;20028;-80
2022/10/11 07:11:15;;;;;;;13.65;2.20;;;9.30;99.90;;;;;;5107888;28;20600;-80
2022/10/11 07:13:41;;;;;;;20.02;3.15;;;7.10;99.90;;;;;;5092723;28;20506;-80
2022/10/11 07:16:11;;;;;;;10.10;3.15;;;7.00;99.90;;;;;;5110024;28;20115;-80
2022/10/11 07:18:37;;;;;;;11.90;3.30;;;7.20;99.90;;;;;;5113375;28;20044;-80
2022/10/11 07:21:05;;;;;;;11.50;2.35;;;7.30;99.90;;;;;;5114459;28;20034;-80
2022/10/11 07:23:32;;;;;;;16.17;2.58;;;7.30;99.90;;;;;;5111506;28;20040;-80
2022/10/11 07:25:58;;;;;;;20.70;3.38;;;7.40;99.90;;;;;;5119626;27;20039;-80
2022/10/11 07:28:24;;;;;;;16.90;2.60;;;7.80;99.90;;;;;;5145737;27;20377;-80
2022/10/11 07:30:50;;;;;;;12.23;1.63;;;7.60;99.90;;;;;;5127157;27;20038;-81
2022/10/11 07:33:16;;;;;;;17.58;2.30;;;7.60;99.90;;;;;;5149474;27;20050;-80
2022/10/11 07:35:41;;;;;;;12.68;2.83;;;7.60;99.90;;;;;;5105278;27;20057;-80
2022/10/11 07:38:07;;;;;;;17.05;3.47;;;7.80;99.90;;;;;;5152891;27;20113;-80
2022/10/11 07:40:41;;;;;;;10.93;2.00;;;7.80;99.90;;;;;;5133422;27;20046;-80
2022/10/11 07:43:07;;;;;;;12.63;1.87;;;9.20;99.90;;;;;;5131377;27;20047;-80
2022/10/11 07:45:32;;;;;;;9.30;1.58;;;7.40;99.90;;;;;;5133510;27;20384;-80
2022/10/11 07:47:58;;;;;;;10.10;2.35;;;10.00;99.90;;;;;;5147022;27;20042;-80
2022/10/11 07:50:25;;;;;;;17.23;1.92;;;8.10;99.90;;;;;;5133174;27;20035;-80
2022/10/11 07:52:51;;;;;;;13.52;1.83;;;8.70;99.90;;;;;;5120803;27;20046;-80
2022/10/11 07:55:16;;;;;;;10.88;2.38;;;8.20;99.90;;;;;;5133998;27;20034;-80
2022/10/11 07:57:42;;;;;;;13.65;2.80;;;8.40;99.90;;;;;;5125228;27;20035;-78
2022/10/11 08:00:08;;;;;;;13.43;3.17;;;8.50;99.90;;;;;;5151864;27;20034;-78
2022/10/11 08:02:34;;;;;;;10.73;1.98;;;8.60;99.90;;;;;;5151765;27;20058;-81
2022/10/11 08:05:02;;;;;;;16.13;2.47;;;8.60;99.90;;;;;;5104309;27;20074;-81
2022/10/11 08:07:28;;;;;;;14.77;1.77;;;8.60;99.90;;;;;;5134238;27;20069;-80
2022/10/11 08:09:58;;;;;;;18.60;2.90;;;10.40;99.90;;;;;;5116551;27;20482;-81
2022/10/11 08:12:24;;;;;;;13.50;2.45;;;8.70;99.90;;;;;;5128577;27;20042;-80
2022/10/11 08:14:50;;;;;;;12.20;1.85;;;8.80;99.90;;;;;;5143989;27;20058;-81
2022/10/11 08:17:15;;;;;;;11.88;2.33;;;8.90;99.90;;;;;;5129683;27;20046;-80
2022/10/11 08:19:41;;;;;;;14.13;2.25;;;9.00;99.90;;;;;;5151163;27;20046;-80
2022/10/11 08:22:06;;;;;;;12.55;2.10;;;9.00;99.90;;;;;;5120177;27;20039;-80
2022/10/11 08:24:32;;;;;;;16.35;2.38;;;11.00;99.90;;;;;;5112819;27;20054;-80
2022/10/11 08:26:57;;;;;;;10.80;1.92;;;9.20;99.90;;;;;;5120184;27;20050;-80
2022/10/11 08:29:23;;;;;;;20.05;2.95;;;9.30;99.90;;;;;;5128965;27;20042;-81
2022/10/11 08:31:49;;;;;;;20.83;4.05;;;9.40;99.90;;;;;;5107949;27;20047;-81
2022/10/11 08:34:14;;;;;;;19.98;2.58;;;9.50;99.90;;;;;;5100993;27;20070;-80
2022/10/11 08:36:40;;;;;;;14.70;2.40;;;9.60;99.90;;;;;;5113481;27;20038;-80
2022/10/11 08:39:07;;;;;;;20.05;1.98;;;10.70;99.90;;;;;;5148696;27;20100;-80
2022/10/11 08:41:37;;;;;;;14.25;2.42;;;10.20;99.90;;;;;;5131795;27;20046;-79
2022/10/11 08:44:06;;;;;;;14.23;2.63;;;9.90;99.90;;;;;;5141387;27;20118;-80
2022/10/11 08:46:37;;;;;;;18.70;2.90;;;10.00;99.90;;;;;;5113426;27;20042;-80
2022/10/11 08:49:05;;;;;;;18.20;2.63;;;10.10;99.90;;;;;;5143511;27;20082;-80
2022/10/11 08:51:44;;;;;;;11.00;2.42;;;10.40;99.90;;;;;;5105148;27;20270;-81
2022/10/11 08:54:27;;;;;;;14.15;1.98;;;10.50;99.90;;;;;;5103444;27;20035;-81
2022/10/11 08:56:53;;;;;;;18.02;2.28;;;10.40;99.90;;;;;;5147021;27;20423;-80
2022/10/11 08:59:29;;;;;;;19.90;2.95;;;10.70;99.90;;;;;;5132209;27;20046;-80
2022/10/11 09:02:11;;;;;;;15.82;2.72;;;10.70;99.90;;;;;;5105420;27;20035;-81
2022/10/11 09:04:37;;;;;;;22.33;4.95;;;11.60;99.90;;;;;;5105784;27;20051;-80
2022/10/11 09:07:18;;;;;;;13.02;2.58;;;11.40;99.90;;;;;;5126844;27;20118;-81
2022/10/11 09:10:11;;;;;;;15.85;2.28;;;11.00;99.90;;;;;;5149372;27;20043;-80
2022/10/11 09:12:49;;;;;;;10.73;2.33;;;11.10;99.90;;;;;;5120684;27;20047;-79
2022/10/11 09:15:40;;;;;;;16.65;2.42;;;11.50;99.90;;;;;;5150322;27;20057;-80
2022/10/11 09:18:25;;;;;;;12.43;2.58;;;11.30;99.90;;;;;;5129005;27;20470;-80
2022/10/11 09:21:30;;;;;;;26.27;3.28;;;12.60;99.90;;;;;;5097670;27;20051;-80
2022/10/11 09:24:44;;;;;;;16.05;1.80;;;11.30;99.90;;;;;;5148325;27;20039;-80
2022/10/11 09:27:35;;;;;;;19.30;2.83;;;11.60;99.90;;;;;;5065395;28;20065;-80
2022/10/11 09:30:16;;;;;;;16.75;3.45;;;11.70;99.90;;;;;;5112688;27;20075;-80
2022/10/11 09:32:46;;;;;;;12.35;2.15;;;11.80;99.90;;;;;;5131540;27;20125;-80
2022/10/11 09:35:18;;;;;;;12.85;2.00;;;12.40;99.90;;;;;;5100585;27;20782;-80
2022/10/11 09:37:58;;;;;;;22.55;3.03;;;12.70;99.90;;;;;;5120528;27;20043;-80
2022/10/11 09:40:41;;;;;;;14.48;2.22;;;12.20;99.90;;;;;;5129634;27;20042;-80
2022/10/11 09:43:08;;;;;;;11.20;2.10;;;12.30;99.90;;;;;;5127952;27;20506;-80
2022/10/11 09:45:33;;;;;;;14.13;2.50;;;12.50;99.90;;;;;;5104772;27;20097;-80
2022/10/11 09:48:04;;;;;;;19.85;2.88;;;12.50;99.90;;;;;;5105862;27;20498;-80
2022/10/11 09:50:31;;;;;;;14.10;2.40;;;12.60;99.90;;;;;;5106550;27;20058;-81
2022/10/11 09:53:03;;;;;;;16.20;2.72;;;12.60;99.90;;;;;;5123353;27;20435;-80
2022/10/11 09:55:53;;;;;;;8.00;2.58;;;13.30;99.90;;;;;;5130910;27;20302;-80
2022/10/11 09:58:31;;;;;;;15.23;2.97;;;13.70;99.90;;;;;;5102264;27;20026;-81
2022/10/11 10:01:07;;;;;;;9.65;1.42;;;12.20;99.90;;;;;;5131301;27;20046;-80
2022/10/11 10:03:38;;;;;;;9.57;2.20;;;12.70;99.90;;;;;;5122706;27;20042;-80
2022/10/11 10:06:22;;;;;;;12.65;2.88;;;14.20;99.90;;;;;;5141663;27;20038;-81
2022/10/11 10:08:49;;;;;;;12.13;1.67;;;12.80;99.90;;;;;;5145323;27;20042;-80
2022/10/11 10:11:16;;;;;;;11.93;2.53;;;12.90;99.90;;;;;;5128894;27;20038;-80
2022/10/11 10:13:51;;;;;;;15.57;2.45;;;13.40;99.90;;;;;;5126144;27;20108;-80
2022/10/11 10:16:33;;;;;;;;;;;13.00;99.90;;;;;;5120621;27;20506;-81
2022/10/11 10:19:00;;;;;;;9.85;2.22;;;13.10;99.90;;;;;;5123433;27;20358;-81
2022/10/11 10:21:36;;;;;;;11.32;1.75;;;13.20;99.90;;;;;;5104336;27;20212;-80
2022/10/11 10:24:08;;;;;;;17.65;1.75;;;13.20;99.90;;;;;;5121229;27;20254;-81
2022/10/11 10:26:34;;;;;;;10.73;2.55;;;13.30;99.90;;;;;;5119568;27;20501;-81
2022/10/11 10:29:15;;;;;;;11.13;2.40;;;14.60;99.90;;;;;;5121020;27;20505;-81
2022/10/11 10:31:47;;;;;;;10.10;2.35;;;14.00;99.90;;;;;;5127181;27;20050;-81
2022/10/11 10:34:37;;;;;;;9.55;1.65;;;13.50;99.90;;;;;;5102783;27;20071;-80
2022/10/11 10:37:16;;;;;;;14.43;2.17;;;14.40;99.90;;;;;;5126501;27;20030;-81
2022/10/11 10:39:48;;;;;;;13.32;2.83;;;13.70;99.90;;;;;;5130216;27;20047;-81
2022/10/11 10:42:17;;;;;;;9.82;2.38;;;13.70;99.90;;;;;;5141316;27;20398;-81
2022/10/11 10:44:49;;;;;;;15.55;2.78;;;13.80;99.90;;;;;;5102040;27;20557;-80
2022/10/11 10:47:34;;;;;;;11.75;2.20;;;13.90;99.90;;;;;;5119565;28;20036;-81
2022/10/11 10:50:20;;;;;;;10.52;1.50;;;14.00;99.90;;;;;;5104427;27;20091;-81
2022/10/11 10:52:57;;;;;;;12.45;1.60;;;14.10;99.90;;;;;;5103589;27;20079;-81
2022/10/11 10:55:43;;;;;;;8.57;1.92;;;14.10;99.90;;;;;;5131095;27;20501;-81
2022/10/11 10:58:49;;;;;;;10.10;1.92;;;14.20;99.90;;;;;;5122179;27;20027;-81
2022/10/11 11:01:27;;;;;;;9.93;2.40;;;14.40;99.90;;;;;;5101530;27;20074;-81
2022/10/11 11:04:32;;;;;;;9.55;1.63;;;14.70;99.90;;;;;;5149040;27;20039;-81
2022/10/11 11:07:12;;;;;;;8.82;1.85;;;14.60;99.90;;;;;;5125681;27;20050;-80
2022/10/11 11:09:56;;;;;;;9.27;1.50;;;14.80;99.90;;;;;;5147724;27;20130;-80
2022/10/11 11:12:38;;;;;;;11.63;2.20;;;14.90;99.90;;;;;;5144458;27;20054;-81
2022/10/11 11:15:26;;;;;;;10.13;1.80;;;16.10;99.90;;;;;;5151434;27;20070;-81
2022/10/11 11:18:33;;;;;;;8.40;1.65;;;15.20;99.90;;;;;;5148292;27;20038;-81
2022/10/11 11:21:29;;;;;;;8.80;1.40;;;15.20;99.90;;;;;;5122709;27;20550;-80
2022/10/11 11:24:30;;;;;;;11.23;2.28;;;15.30;99.90;;;;;;5133885;27;20387;-80
2022/10/11 11:27:08;;;;;;;11.90;1.45;;;15.30;99.90;;;;;;5104389;27;20146;-80
2022/10/11 11:29:49;;;;;;;7.25;1.48;;;15.10;99.90;;;;;;5149120;27;20137;-80
2022/10/11 11:32:52;;;;;;;8.07;1.33;;;15.00;99.90;;;;;;5151482;27;20545;-81
2022/10/11 11:35:24;;;;;;;6.95;1.30;;;15.00;99.90;;;;;;5116782;27;20375;-80
2022/10/11 11:37:56;;;;;;;8.88;1.60;;;14.90;99.90;;;;;;5130931;27;20050;-80
2022/10/11 11:40:28;;;;;;;11.60;1.95;;;14.80;99.90;;;;;;5117262;27;20035;-81
2022/10/11 11:42:59;;;;;;;8.32;1.02;;;14.70;99.90;;;;;;5131239;27;20047;-81
2022/10/11 11:45:35;;;;;;;8.98;1.70;;;14.70;99.90;;;;;;5145190;27;20075;-80
2022/10/11 11:48:12;;;;;;;6.72;1.50;;;14.70;99.90;;;;;;5147451;27;20046;-81
2022/10/11 11:50:43;;;;;;;8.93;1.25;;;14.60;99.90;;;;;;5128356;27;20482;-80
2022/10/11 11:53:16;;;;;;;9.90;2.47;;;14.60;99.90;;;;;;5145534;27;20543;-80
2022/10/11 11:55:56;;;;;;;7.20;1.60;;;14.70;99.90;;;;;;5151935;27;20042;-80
2022/10/11 11:58:28;;;;;;;8.18;1.45;;;14.70;99.90;;;;;;5145062;27;20042;-80
2022/10/11 12:01:05;;;;;;;8.85;1.50;;;14.70;99.90;;;;;;5133868;27;20163;-81
2022/10/11 12:03:41;;;;;;;13.40;1.75;;;14.70;99.90;;;;;;5120243;27;20039;-80
2022/10/11 12:06:13;;;;;;;13.07;1.90;;;14.80;99.90;;;;;;5132315;27;20093;-81
2022/10/11 12:08:42;;;;;;;10.98;1.48;;;14.80;99.90;;;;;;5128489;27;20378;-81
2022/10/11 12:11:24;;;;;;;16.02;2.80;;;14.90;99.90;;;;;;5112974;27;20242;-81
2022/10/11 12:13:51;;;;;;;9.38;1.58;;;14.90;99.90;;;;;;5130702;27;20053;-81
2022/10/11 12:16:18;;;;;;;12.57;3.60;;;15.90;99.90;;;;;;5150709;27;20418;-81
2022/10/11 12:19:13;;;;;;;8.60;1.45;;;14.90;99.90;;;;;;5105742;27;20126;-81
2022/10/11 12:21:42;;;;;;;8.02;1.88;;;15.10;99.90;;;;;;5128493;27;20051;-81
2022/10/11 12:24:12;;;;;;;11.70;1.73;;;15.30;99.90;;;;;;5145234;27;20042;-81
2022/10/11 12:26:40;;;;;;;9.02;0.95;;;15.60;99.90;;;;;;5132801;27;20058;-80
2022/10/11 12:29:23;;;;;;;10.00;1.80;;;16.40;99.90;;;;;;5102099;27;20051;-80
2022/10/11 12:32:12;;;;;;;9.38;1.65;;;15.90;99.90;;;;;;5115806;27;20057;-80
2022/10/11 12:34:43;;;;;;;7.95;1.50;;;16.10;99.90;;;;;;5103012;27;20131;-81
2022/10/11 12:37:23;;;;;;;13.07;1.65;;;16.00;99.90;;;;;;5104847;27;20051;-81
2022/10/11 12:39:51;;;;;;;9.13;1.63;;;15.90;99.90;;;;;;5103275;27;20504;-80
2022/10/11 12:42:36;;;;;;;9.23;1.65;;;15.80;99.90;;;;;;5102212;27;20134;-80
2022/10/11 12:45:12;;;;;;;10.98;2.25;;;15.70;99.90;;;;;;5128243;27;20507;-81
2022/10/11 12:47:59;;;;;;;12.52;2.85;;;15.80;99.90;;;;;;5124379;27;20126;-81
2022/10/11 12:50:49;;;;;;;9.05;1.83;;;15.50;99.90;;;;;;5112154;27;20043;-81
2022/10/11 12:53:23;;;;;;;10.88;1.33;;;15.40;99.90;;;;;;5113092;27;20086;-81
2022/10/11 12:56:04;;;;;;;8.55;1.42;;;16.10;99.90;;;;;;5129761;27;20092;-80
2022/10/11 12:58:40;;;;;;;9.52;1.83;;;15.30;99.90;;;;;;5139561;27;20050;-82
2022/10/11 13:01:08;;;;;;;14.93;1.85;;;15.20;99.90;;;;;;5131015;27;20094;-81
2022/10/11 13:03:40;;;;;;;12.63;1.65;;;15.20;99.90;;;;;;5128169;27;20099;-81
2022/10/11 13:06:23;;;;;;;9.40;1.27;;;15.10;99.90;;;;;;5147557;27;20043;-81
2022/10/11 13:09:02;;;;;;;6.95;1.50;;;15.10;99.90;;;;;;5131991;27;20482;-81
2022/10/11 13:11:47;;;;;;;8.05;1.63;;;15.00;99.90;;;;;;5142317;27;20129;-81